createdAt,value
2023-06-19T00:02:00.617Z,16.70
2023-06-19T00:04:29.066Z,16.70
2023-06-19T00:06:57.513Z,16.70
2023-06-19T00:09:26.353Z,16.70
2023-06-19T00:11:56.106Z,16.70
2023-06-19T00:14:24.861Z,16.70
2023-06-19T00:16:53.854Z,16.70
2023-06-19T00:19:22.270Z,16.60
2023-06-19T00:21:50.723Z,16.60
2023-06-19T00:24:19.232Z,16.60
2023-06-19T00:26:47.599Z,16.50
2023-06-19T00:29:17.483Z,16.50
2023-06-19T00:31:46.198Z,16.50
2023-06-19T00:34:14.579Z,16.50
2023-06-19T00:36:43.036Z,16.50
2023-06-19T00:39:12.056Z,16.50
2023-06-19T00:41:40.552Z,16.50
2023-06-19T00:44:08.974Z,16.60
2023-06-19T00:46:40.139Z,16.60
2023-06-19T00:49:08.653Z,16.70
2023-06-19T00:51:37.108Z,16.70
2023-06-19T00:54:05.646Z,16.80
2023-06-19T00:56:35.722Z,16.80
2023-06-19T00:59:04.227Z,16.80
2023-06-19T01:01:32.679Z,16.80
2023-06-19T01:04:02.666Z,16.90
2023-06-19T01:06:46.031Z,16.90
2023-06-19T01:09:17.287Z,16.90
2023-06-19T01:11:59.196Z,16.90
2023-06-19T01:14:30.293Z,16.90
2023-06-19T01:16:58.711Z,16.90
2023-06-19T01:19:28.867Z,16.90
2023-06-19T01:21:57.209Z,16.90
2023-06-19T01:24:27.051Z,16.90
2023-06-19T01:26:55.507Z,16.90
2023-06-19T01:29:23.941Z,16.90
2023-06-19T01:31:55.937Z,16.90
2023-06-19T01:34:24.486Z,16.90
2023-06-19T01:36:52.902Z,16.80
2023-06-19T01:39:21.425Z,16.80
2023-06-19T01:41:51.241Z,16.80
2023-06-19T01:44:19.649Z,16.70
2023-06-19T01:46:50.619Z,16.70
2023-06-19T01:49:19.074Z,16.60
2023-06-19T01:51:47.476Z,16.60
2023-06-19T01:54:15.879Z,16.60
2023-06-19T01:56:44.168Z,16.60
2023-06-19T01:59:13.998Z,16.60
2023-06-19T02:01:42.398Z,16.60
2023-06-19T02:04:10.898Z,16.60
2023-06-19T02:06:39.280Z,16.60
2023-06-19T02:09:09.050Z,16.60
2023-06-19T02:11:37.477Z,16.60
2023-06-19T02:14:05.960Z,16.60
2023-06-19T02:16:35.879Z,16.60
2023-06-19T02:19:04.457Z,16.60
2023-06-19T02:21:32.811Z,16.60
2023-06-19T02:24:01.348Z,16.60
2023-06-19T02:26:30.495Z,16.60
2023-06-19T02:28:58.890Z,16.60
2023-06-19T02:31:27.349Z,16.50
2023-06-19T02:33:57.162Z,16.60
2023-06-19T02:36:25.593Z,16.50
2023-06-19T02:38:53.973Z,16.50
2023-06-19T02:41:22.410Z,16.50
2023-06-19T02:43:50.834Z,16.50
2023-06-19T02:46:19.252Z,16.50
2023-06-19T02:48:47.743Z,16.50
2023-06-19T02:51:17.537Z,16.50
2023-06-19T02:53:46.030Z,16.50
2023-06-19T02:56:14.694Z,16.50
2023-06-19T02:58:43.170Z,16.50
2023-06-19T03:01:11.707Z,16.50
2023-06-19T03:03:42.071Z,16.40
2023-06-19T03:06:10.850Z,16.40
2023-06-19T03:08:40.599Z,16.40
2023-06-19T03:11:09.024Z,16.40
2023-06-19T03:13:47.119Z,16.40
2023-06-19T03:16:16.243Z,16.40
2023-06-19T03:18:46.667Z,16.40
2023-06-19T03:21:15.571Z,16.40
2023-06-19T03:23:45.367Z,16.40
2023-06-19T03:26:13.845Z,16.40
2023-06-19T03:28:42.260Z,16.40
2023-06-19T03:31:10.739Z,16.40
2023-06-19T03:33:39.154Z,16.50
2023-06-19T03:36:08.103Z,16.50
2023-06-19T03:38:36.653Z,16.50
2023-06-19T03:41:06.419Z,16.60
2023-06-19T03:43:34.840Z,16.60
2023-06-19T03:46:03.266Z,16.70
2023-06-19T03:48:31.700Z,16.70
2023-06-19T03:51:01.822Z,16.80
2023-06-19T03:53:30.259Z,16.80
2023-06-19T03:55:58.698Z,16.90
2023-06-19T03:58:28.537Z,17.00
2023-06-19T04:00:56.993Z,17.00
2023-06-19T04:03:25.452Z,17.10
2023-06-19T04:05:53.915Z,17.20
2023-06-19T04:08:22.466Z,17.20
2023-06-19T04:10:50.855Z,17.30
2023-06-19T04:13:19.228Z,17.30
2023-06-19T04:15:51.017Z,17.40
2023-06-19T04:18:20.010Z,17.40
2023-06-19T04:20:48.523Z,17.40
2023-06-19T04:23:16.904Z,17.50
2023-06-19T04:25:45.230Z,17.50
2023-06-19T04:28:13.584Z,17.60
2023-06-19T04:30:41.994Z,17.60
2023-06-19T04:33:11.998Z,17.70
2023-06-19T04:35:42.043Z,17.80
2023-06-19T04:38:10.905Z,17.80
2023-06-19T04:40:39.296Z,17.80
2023-06-19T04:43:07.862Z,17.90
2023-06-19T04:45:36.342Z,18.00
2023-06-19T04:48:05.326Z,18.00
2023-06-19T04:50:35.145Z,18.00
2023-06-19T04:53:03.599Z,18.10
2023-06-19T04:55:32.235Z,18.10
2023-06-19T04:58:00.795Z,18.10
2023-06-19T05:00:29.274Z,18.20
2023-06-19T05:03:01.715Z,18.20
2023-06-19T05:05:30.518Z,18.20
2023-06-19T05:08:00.372Z,18.20
2023-06-19T05:10:29.081Z,18.30
2023-06-19T05:12:57.488Z,18.40
2023-06-19T05:15:25.890Z,18.40
2023-06-19T05:17:54.370Z,18.50
2023-06-19T05:20:23.175Z,18.50
2023-06-19T05:22:51.800Z,18.50
2023-06-19T05:25:21.811Z,18.60
2023-06-19T05:27:50.245Z,18.60
2023-06-19T05:30:18.730Z,18.70
2023-06-19T05:32:47.119Z,18.70
2023-06-19T05:35:16.617Z,18.80
2023-06-19T05:37:45.441Z,18.80
2023-06-19T05:40:14.225Z,18.90
2023-06-19T05:42:44.192Z,18.90
2023-06-19T05:45:13.466Z,19.00
2023-06-19T05:47:42.009Z,19.00
2023-06-19T05:50:11.554Z,19.10
2023-06-19T05:52:42.786Z,19.10
2023-06-19T05:55:11.590Z,19.10
2023-06-19T05:57:40.037Z,19.20
2023-06-19T06:00:15.410Z,19.20
2023-06-19T06:02:43.905Z,19.30
2023-06-19T06:05:12.368Z,19.40
2023-06-19T06:07:41.727Z,19.50
2023-06-19T06:10:11.506Z,19.50
2023-06-19T06:12:40.057Z,19.60
2023-06-19T06:15:10.955Z,19.70
2023-06-19T06:17:39.465Z,19.70
2023-06-19T06:20:13.578Z,19.80
2023-06-19T06:22:42.444Z,19.80
2023-06-19T06:25:13.574Z,19.80
2023-06-19T06:27:43.007Z,19.90
2023-06-19T06:30:15.060Z,19.90
2023-06-19T06:32:44.674Z,19.90
2023-06-19T06:35:13.191Z,20.00
2023-06-19T06:37:41.701Z,20.00
2023-06-19T06:40:12.277Z,20.10
2023-06-19T06:42:41.075Z,20.10
2023-06-19T06:45:10.355Z,20.20
2023-06-19T06:47:41.187Z,20.30
2023-06-19T06:50:10.829Z,20.30
2023-06-19T06:52:39.639Z,20.40
2023-06-19T06:55:08.835Z,20.40
2023-06-19T06:57:37.187Z,20.50
2023-06-19T07:00:10.968Z,20.60
2023-06-19T07:02:42.314Z,20.70
2023-06-19T07:05:11.563Z,20.80
2023-06-19T07:07:40.091Z,20.80
2023-06-19T07:10:10.081Z,20.90
2023-06-19T07:12:46.235Z,21.00
2023-06-19T07:15:14.636Z,21.20
2023-06-19T07:17:45.119Z,21.30
2023-06-19T07:20:14.055Z,21.40
2023-06-19T07:22:42.710Z,21.50
2023-06-19T07:25:12.937Z,21.60
2023-06-19T07:27:42.431Z,21.70
2023-06-19T07:30:14.870Z,21.90
2023-06-19T07:32:45.761Z,22.00
2023-06-19T07:35:14.219Z,22.10
2023-06-19T07:37:42.714Z,22.20
2023-06-19T07:40:13.093Z,22.30
2023-06-19T07:42:44.154Z,22.40
2023-06-19T07:45:14.848Z,22.60
2023-06-19T07:47:44.679Z,22.70
2023-06-19T07:50:13.091Z,22.90
2023-06-19T07:52:41.509Z,23.00
2023-06-19T07:55:10.853Z,23.10
2023-06-19T07:57:39.280Z,23.20
2023-06-19T08:00:12.452Z,23.30
2023-06-19T08:02:41.766Z,23.40
2023-06-19T08:05:12.329Z,23.50
2023-06-19T08:07:40.836Z,23.60
2023-06-19T08:10:13.953Z,23.70
2023-06-19T08:12:43.855Z,23.80
2023-06-19T08:15:14.521Z,23.80
2023-06-19T08:17:43.274Z,23.90
2023-06-19T08:20:13.433Z,24.00
2023-06-19T08:22:41.935Z,24.00
2023-06-19T08:25:11.018Z,24.10
2023-06-19T08:27:40.426Z,24.10
2023-06-19T08:30:10.151Z,24.20
2023-06-19T08:32:38.771Z,24.30
2023-06-19T08:35:07.992Z,24.40
2023-06-19T08:37:37.940Z,24.50
2023-06-19T08:40:10.632Z,24.50
2023-06-19T08:42:40.333Z,24.60
2023-06-19T08:45:11.610Z,24.60
2023-06-19T08:47:40.437Z,24.60
2023-06-19T08:50:10.334Z,24.50
2023-06-19T08:52:40.149Z,24.40
2023-06-19T08:55:09.826Z,24.30
2023-06-19T08:57:39.524Z,24.30
2023-06-19T09:00:11.996Z,24.20
2023-06-19T09:02:43.261Z,24.10
2023-06-19T09:05:15.518Z,24.10
2023-06-19T09:07:45.659Z,24.10
2023-06-19T09:10:17.558Z,24.20
2023-06-19T09:12:46.197Z,24.30
2023-06-19T09:15:15.041Z,24.50
2023-06-19T09:17:43.639Z,24.60
2023-06-19T09:20:13.050Z,24.90
2023-06-19T09:22:42.011Z,25.10
2023-06-19T09:25:12.081Z,25.20
2023-06-19T09:27:40.665Z,25.30
2023-06-19T09:30:09.908Z,25.40
2023-06-19T09:32:38.444Z,25.50
2023-06-19T09:35:07.639Z,25.50
2023-06-19T09:37:36.078Z,25.50
2023-06-19T09:40:11.355Z,25.60
2023-06-19T09:42:42.128Z,25.60
2023-06-19T09:45:13.685Z,25.70
2023-06-19T09:47:47.846Z,25.70
2023-06-19T09:50:19.059Z,25.80
2023-06-19T09:52:47.638Z,25.80
2023-06-19T09:55:17.143Z,25.80
2023-06-19T09:57:46.926Z,25.80
2023-06-19T10:00:18.029Z,25.80
2023-06-19T10:02:47.844Z,25.80
2023-06-19T10:05:16.582Z,25.90
2023-06-19T10:07:46.071Z,25.80
2023-06-19T10:10:25.465Z,25.80
2023-06-19T10:12:57.540Z,25.80
2023-06-19T10:15:27.026Z,25.70
2023-06-19T10:17:57.945Z,25.70
2023-06-19T10:20:33.088Z,25.70
2023-06-19T10:23:05.319Z,25.70
2023-06-19T10:25:35.508Z,25.80
2023-06-19T10:28:07.617Z,25.80
2023-06-19T10:30:36.483Z,25.90
2023-06-19T10:33:05.415Z,25.90
2023-06-19T10:35:41.143Z,26.00
2023-06-19T10:38:09.962Z,26.10
2023-06-19T10:40:39.112Z,26.20
2023-06-19T10:43:08.851Z,26.40
2023-06-19T10:45:37.342Z,26.50
2023-06-19T10:48:06.807Z,26.60
2023-06-19T10:50:39.650Z,26.70
2023-06-19T10:53:08.440Z,26.80
2023-06-19T10:55:36.872Z,26.80
2023-06-19T10:58:05.315Z,26.80
2023-06-19T11:00:35.670Z,26.90
2023-06-19T11:03:04.297Z,26.90
2023-06-19T11:05:32.774Z,27.00
2023-06-19T11:08:01.502Z,27.10
2023-06-19T11:10:31.110Z,27.20
2023-06-19T11:13:00.659Z,27.40
2023-06-19T11:15:34.248Z,27.50
2023-06-19T11:18:04.072Z,27.80
2023-06-19T11:20:32.556Z,28.00
2023-06-19T11:23:02.254Z,28.10
2023-06-19T11:25:38.057Z,28.20
2023-06-19T11:28:06.855Z,28.30
2023-06-19T11:30:36.842Z,28.30
2023-06-19T11:33:05.490Z,28.30
2023-06-19T11:35:37.617Z,28.30
2023-06-19T11:38:06.716Z,28.30
2023-06-19T11:40:42.225Z,28.30
2023-06-19T11:43:11.112Z,28.30
2023-06-19T11:45:50.281Z,28.20
2023-06-19T11:48:25.336Z,28.00
2023-06-19T11:50:54.273Z,28.00
2023-06-19T11:53:23.189Z,27.80
2023-06-19T11:55:51.612Z,27.80
2023-06-19T11:58:21.472Z,27.70
2023-06-19T12:00:51.280Z,27.60
2023-06-19T12:03:19.952Z,27.70
2023-06-19T12:05:48.418Z,27.80
2023-06-19T12:08:16.995Z,27.80
2023-06-19T12:10:45.723Z,27.90
2023-06-19T12:13:14.094Z,28.00
2023-06-19T12:15:42.454Z,28.20
2023-06-19T12:18:13.634Z,28.30
2023-06-19T12:20:42.161Z,28.40
2023-06-19T12:23:10.757Z,28.50
2023-06-19T12:25:39.199Z,28.60
2023-06-19T12:28:09.344Z,28.80
2023-06-19T12:30:38.581Z,28.90
2023-06-19T12:33:07.470Z,29.10
2023-06-19T12:35:37.327Z,29.30
2023-06-19T12:38:07.477Z,29.50
2023-06-19T12:40:36.163Z,29.80
2023-06-19T12:43:04.743Z,29.90
2023-06-19T12:45:33.252Z,30.00
2023-06-19T12:48:01.745Z,30.00
2023-06-19T12:50:30.220Z,29.90
2023-06-19T12:53:00.113Z,29.80
2023-06-19T12:55:28.508Z,29.70
2023-06-19T12:57:56.928Z,29.70
2023-06-19T13:00:25.544Z,29.60
2023-06-19T13:02:54.201Z,29.70
2023-06-19T13:05:22.670Z,29.70
2023-06-19T13:07:51.104Z,29.70
2023-06-19T13:10:21.011Z,29.80
2023-06-19T13:12:49.465Z,29.80
2023-06-19T13:15:18.119Z,29.70
2023-06-19T13:17:46.685Z,29.50
2023-06-19T13:20:15.403Z,29.50
2023-06-19T13:22:43.960Z,29.40
2023-06-19T13:25:12.414Z,29.40
2023-06-19T13:27:42.184Z,29.50
2023-06-19T13:30:12.111Z,29.60
2023-06-19T13:32:40.544Z,29.90
2023-06-19T13:35:10.435Z,30.10
2023-06-19T13:37:40.073Z,30.20
2023-06-19T13:40:10.175Z,30.30
2023-06-19T13:42:39.892Z,30.20
2023-06-19T13:45:11.027Z,30.00
2023-06-19T13:47:39.491Z,29.90
2023-06-19T13:50:10.268Z,29.90
2023-06-19T13:52:38.654Z,29.90
2023-06-19T13:55:08.232Z,30.10
2023-06-19T13:57:38.295Z,30.20
2023-06-19T14:00:12.305Z,30.20
2023-06-19T14:02:41.890Z,30.20
2023-06-19T14:05:11.214Z,30.20
2023-06-19T14:07:39.814Z,30.10
2023-06-19T14:10:09.658Z,30.00
2023-06-19T14:12:38.158Z,29.90
2023-06-19T14:15:10.750Z,29.80
2023-06-19T14:17:39.423Z,29.70
2023-06-19T14:20:10.136Z,29.70
2023-06-19T14:22:38.549Z,29.70
2023-06-19T14:25:08.000Z,29.80
2023-06-19T14:27:36.371Z,29.80
2023-06-19T14:30:05.456Z,29.80
2023-06-19T14:32:35.392Z,29.80
2023-06-19T14:35:03.883Z,29.80
2023-06-19T14:37:32.334Z,29.80
2023-06-19T14:40:00.786Z,29.80
2023-06-19T14:42:29.304Z,29.80
2023-06-19T14:44:57.705Z,29.70
2023-06-19T14:47:26.422Z,29.60
2023-06-19T14:49:56.370Z,29.60
2023-06-19T14:52:24.827Z,29.60
2023-06-19T14:54:53.137Z,29.60
2023-06-19T14:57:21.574Z,29.60
2023-06-19T14:59:49.910Z,29.80
2023-06-19T15:02:18.360Z,29.80
2023-06-19T15:05:01.124Z,29.90
2023-06-19T15:07:35.179Z,29.90
2023-06-19T15:10:04.910Z,30.00
2023-06-19T15:12:35.630Z,30.00
2023-06-19T15:15:04.173Z,30.10
2023-06-19T15:17:32.576Z,30.20
2023-06-19T15:20:00.992Z,30.20
2023-06-19T15:22:29.713Z,30.10
2023-06-19T15:24:59.458Z,30.00
2023-06-19T15:27:27.914Z,30.00
2023-06-19T15:29:56.312Z,30.00
2023-06-19T15:32:25.258Z,29.90
2023-06-19T15:34:53.718Z,29.80
2023-06-19T15:37:22.293Z,29.70
2023-06-19T15:39:52.717Z,29.60
2023-06-19T15:42:22.658Z,29.60
2023-06-19T15:44:51.095Z,29.60
2023-06-19T15:47:20.084Z,29.60
2023-06-19T15:49:48.423Z,29.60
2023-06-19T15:52:16.929Z,29.60
2023-06-19T15:54:45.357Z,29.60
2023-06-19T15:57:14.898Z,29.60
2023-06-19T15:59:47.861Z,29.60
2023-06-19T16:02:16.284Z,29.60
2023-06-19T16:04:44.766Z,29.70
2023-06-19T16:07:13.252Z,29.80
2023-06-19T16:09:54.393Z,29.90
2023-06-19T16:12:24.231Z,30.10
2023-06-19T16:14:54.106Z,30.20
2023-06-19T16:17:22.650Z,30.10
2023-06-19T16:19:51.186Z,30.10
2023-06-19T16:22:19.620Z,30.00
2023-06-19T16:24:48.089Z,29.90
2023-06-19T16:27:16.556Z,29.80
2023-06-19T16:29:44.962Z,29.70
2023-06-19T16:32:14.949Z,29.60
2023-06-19T16:34:43.580Z,29.60
2023-06-19T16:37:11.909Z,29.50
2023-06-19T16:39:40.292Z,29.50
2023-06-19T16:42:09.109Z,29.50
2023-06-19T16:44:37.520Z,29.50
2023-06-19T16:47:06.875Z,29.50
2023-06-19T16:49:36.808Z,29.40
2023-06-19T16:52:05.552Z,29.40
2023-06-19T16:54:33.926Z,29.30
2023-06-19T16:57:02.360Z,29.20
2023-06-19T16:59:30.781Z,29.10
2023-06-19T17:01:59.184Z,29.00
2023-06-19T17:04:27.679Z,28.80
2023-06-19T17:06:57.518Z,28.70
2023-06-19T17:09:26.012Z,28.60
2023-06-19T17:11:54.372Z,28.50
2023-06-19T17:14:23.816Z,28.50
2023-06-19T17:16:52.994Z,28.40
2023-06-19T17:19:21.353Z,28.40
2023-06-19T17:21:49.856Z,28.30
2023-06-19T17:24:19.688Z,28.30
2023-06-19T17:26:48.101Z,28.30
2023-06-19T17:29:16.601Z,28.30
2023-06-19T17:31:45.113Z,28.30
2023-06-19T17:34:13.659Z,28.40
2023-06-19T17:36:42.062Z,28.40
2023-06-19T17:39:10.643Z,28.30
2023-06-19T17:41:40.483Z,28.30
2023-06-19T17:44:09.235Z,28.20
2023-06-19T17:46:39.404Z,28.20
2023-06-19T17:49:08.093Z,28.10
2023-06-19T17:51:36.519Z,28.00
2023-06-19T17:54:05.856Z,27.90
2023-06-19T17:56:34.572Z,27.90
2023-06-19T17:59:04.520Z,27.80
2023-06-19T18:01:32.979Z,27.70
2023-06-19T18:04:01.458Z,27.60
2023-06-19T18:06:29.891Z,27.50
2023-06-19T18:08:58.300Z,27.40
2023-06-19T18:11:26.794Z,27.30
2023-06-19T18:13:55.222Z,27.30
2023-06-19T18:16:25.402Z,27.20
2023-06-19T18:18:53.873Z,27.10
2023-06-19T18:21:22.212Z,27.10
2023-06-19T18:23:51.036Z,27.00
2023-06-19T18:26:19.522Z,27.00
2023-06-19T18:28:47.962Z,26.90
2023-06-19T18:31:16.351Z,26.80
2023-06-19T18:33:46.156Z,26.70
2023-06-19T18:36:14.686Z,26.70
2023-06-19T18:38:43.076Z,26.60
2023-06-19T18:41:11.496Z,26.60
2023-06-19T18:43:40.153Z,26.60
2023-06-19T18:46:08.666Z,26.50
2023-06-19T18:48:37.131Z,26.50
2023-06-19T18:51:06.920Z,26.50
2023-06-19T18:53:35.356Z,26.40
2023-06-19T18:56:03.756Z,26.40
2023-06-19T18:58:32.198Z,26.30
2023-06-19T19:01:01.221Z,26.20
2023-06-19T19:03:31.760Z,26.10
2023-06-19T19:06:00.353Z,26.10
2023-06-19T19:08:30.171Z,26.00
2023-06-19T19:10:58.621Z,25.90
2023-06-19T19:13:27.122Z,25.80
2023-06-19T19:15:55.541Z,25.70
2023-06-19T19:18:23.958Z,25.50
2023-06-19T19:20:52.478Z,25.40
2023-06-19T19:23:20.917Z,25.30
2023-06-19T19:25:50.753Z,25.20
2023-06-19T19:28:19.211Z,25.10
2023-06-19T19:30:47.644Z,25.00
2023-06-19T19:33:17.499Z,24.90
2023-06-19T19:35:46.118Z,24.80
2023-06-19T19:38:17.661Z,24.70
2023-06-19T19:40:46.786Z,24.60
2023-06-19T19:43:17.727Z,24.40
2023-06-19T19:45:46.201Z,24.40
2023-06-19T19:48:14.646Z,24.30
2023-06-19T19:50:43.087Z,24.20
2023-06-19T19:53:11.508Z,24.10
2023-06-19T19:55:39.926Z,24.00
2023-06-19T19:58:08.342Z,24.00
2023-06-19T20:00:38.186Z,23.90
2023-06-19T20:03:06.720Z,23.80
2023-06-19T20:05:35.243Z,23.70
2023-06-19T20:08:03.670Z,23.60
2023-06-19T20:10:32.072Z,23.50
2023-06-19T20:13:00.494Z,23.50
2023-06-19T20:15:29.000Z,23.40
2023-06-19T20:17:58.825Z,23.30
2023-06-19T20:20:27.679Z,23.20
2023-06-19T20:22:57.606Z,23.20
2023-06-19T20:25:26.008Z,23.10
2023-06-19T20:28:07.442Z,23.00
2023-06-19T20:30:37.198Z,23.00
2023-06-19T20:33:07.101Z,22.90
2023-06-19T20:35:35.590Z,22.90
2023-06-19T20:38:04.059Z,22.80
2023-06-19T20:40:32.504Z,22.70
2023-06-19T20:43:00.967Z,22.60
2023-06-19T20:45:29.428Z,22.60
2023-06-19T20:47:57.899Z,22.50
2023-06-19T20:50:28.189Z,22.50
2023-06-19T20:52:56.858Z,22.40
2023-06-19T20:55:25.254Z,22.40
2023-06-19T20:57:54.596Z,22.30
2023-06-19T21:00:23.759Z,22.20
2023-06-19T21:02:52.776Z,22.10
2023-06-19T21:05:21.310Z,22.10
2023-06-19T21:07:52.738Z,22.00
2023-06-19T21:10:21.341Z,21.90
2023-06-19T21:12:49.910Z,21.90
2023-06-19T21:15:18.567Z,21.80
2023-06-19T21:17:47.241Z,21.80
2023-06-19T21:20:15.842Z,21.80
2023-06-19T21:22:44.294Z,21.70
2023-06-19T21:25:14.166Z,21.70
2023-06-19T21:27:44.157Z,21.60
2023-06-19T21:30:14.448Z,21.60
2023-06-19T21:32:43.826Z,21.50
2023-06-19T21:35:12.422Z,21.50
2023-06-19T21:37:40.860Z,21.50
2023-06-19T21:40:10.148Z,21.40
2023-06-19T21:42:40.000Z,21.40
2023-06-19T21:45:09.977Z,21.40
2023-06-19T21:47:39.362Z,21.30
2023-06-19T21:50:08.824Z,21.30
2023-06-19T21:52:39.401Z,21.20
2023-06-19T21:55:09.813Z,21.20
2023-06-19T21:57:54.215Z,21.20
2023-06-19T22:00:29.473Z,21.10
2023-06-19T22:02:58.707Z,21.00
2023-06-19T22:05:27.474Z,21.00
2023-06-19T22:07:56.046Z,21.00
2023-06-19T22:10:24.835Z,20.90
2023-06-19T22:12:54.981Z,20.90
2023-06-19T22:15:23.341Z,20.90
2023-06-19T22:17:51.748Z,20.90
2023-06-19T22:20:20.304Z,20.80
2023-06-19T22:22:48.705Z,20.70
2023-06-19T22:25:17.384Z,20.70
2023-06-19T22:27:47.256Z,20.60
2023-06-19T22:30:17.573Z,20.60
2023-06-19T22:32:45.990Z,20.60
2023-06-19T22:35:14.441Z,20.50
2023-06-19T22:37:43.147Z,20.50
2023-06-19T22:40:12.960Z,20.50
2023-06-19T22:42:42.594Z,20.50
2023-06-19T22:45:12.196Z,20.40
2023-06-19T22:47:42.064Z,20.40
2023-06-19T22:50:12.047Z,20.30
2023-06-19T22:52:40.534Z,20.20
2023-06-19T22:55:09.743Z,20.20
2023-06-19T22:57:38.566Z,20.20
2023-06-19T23:00:11.784Z,20.10
2023-06-19T23:02:41.867Z,20.10
2023-06-19T23:05:11.089Z,20.10
2023-06-19T23:07:40.340Z,20.10
2023-06-19T23:10:09.972Z,20.00
2023-06-19T23:12:38.537Z,20.00
2023-06-19T23:15:08.722Z,20.00
2023-06-19T23:17:37.586Z,19.90
2023-06-19T23:20:13.239Z,19.90
2023-06-19T23:22:41.613Z,19.90
2023-06-19T23:25:12.021Z,19.90
2023-06-19T23:27:40.529Z,19.90
2023-06-19T23:30:10.291Z,19.90
2023-06-19T23:32:38.825Z,19.90
2023-06-19T23:35:09.717Z,19.90
2023-06-19T23:37:38.170Z,19.90
2023-06-19T23:40:09.295Z,19.80
2023-06-19T23:42:37.980Z,19.80
2023-06-19T23:45:07.452Z,19.80
2023-06-19T23:47:35.977Z,19.80
2023-06-19T23:50:04.802Z,19.80
2023-06-19T23:52:43.447Z,19.80
2023-06-19T23:55:13.017Z,19.80
2023-06-19T23:57:41.487Z,19.80
